createdAt,value
2022-10-02T00:01:24.514Z,10.6
2022-10-02T00:13:24.386Z,10.8
2022-10-02T00:25:24.381Z,11.1
2022-10-02T00:37:24.381Z,11.3
2022-10-02T00:49:24.382Z,11.4
2022-10-02T01:01:24.475Z,11.4
2022-10-02T01:13:24.400Z,11.5
2022-10-02T01:25:24.404Z,11.5
2022-10-02T01:37:24.450Z,11.6
2022-10-02T01:49:24.451Z,11.6
2022-10-02T02:01:24.461Z,11.7
2022-10-02T02:13:24.487Z,11.6
2022-10-02T02:25:24.386Z,11.6
2022-10-02T02:37:24.487Z,11.6
2022-10-02T02:49:24.379Z,11.6
2022-10-02T03:01:24.427Z,11.6
2022-10-02T03:13:24.381Z,11.6
2022-10-02T03:25:24.382Z,11.7
2022-10-02T03:37:24.392Z,11.8
2022-10-02T03:49:24.387Z,11.9
2022-10-02T04:01:24.426Z,11.9
2022-10-02T04:13:24.383Z,11.9
2022-10-02T04:25:24.382Z,11.8
2022-10-02T04:37:24.378Z,11.9
2022-10-02T04:49:24.382Z,11.9
2022-10-02T05:01:24.883Z,11.8
2022-10-02T05:13:24.470Z,11.8
2022-10-02T05:25:24.382Z,11.9
2022-10-02T05:37:24.385Z,11.8
2022-10-02T05:49:24.389Z,11.7
2022-10-02T06:01:24.624Z,11.7
2022-10-02T06:13:24.510Z,11.7
2022-10-02T06:25:24.654Z,11.7
2022-10-02T06:37:24.636Z,11.8
2022-10-02T06:49:24.618Z,11.8
2022-10-02T07:01:24.742Z,11.9
2022-10-02T07:13:24.486Z,11.9
2022-10-02T07:25:24.385Z,11.9
2022-10-02T07:37:25.391Z,11.9
2022-10-02T07:49:24.390Z,12.0
2022-10-02T08:01:24.437Z,11.9
2022-10-02T08:13:24.437Z,12.0
2022-10-02T08:25:24.449Z,12.1
2022-10-02T08:46:46.267Z,12.5
2022-10-02T08:58:46.163Z,12.6
2022-10-02T09:10:46.165Z,12.6
2022-10-02T09:22:46.281Z,12.8
2022-10-02T09:34:46.169Z,12.9
2022-10-02T09:46:46.285Z,13.1
2022-10-02T09:58:46.262Z,12.9
2022-10-02T10:10:46.171Z,13.1
2022-10-02T10:22:46.288Z,13.2
2022-10-02T10:34:46.342Z,13.3
2022-10-02T10:46:46.264Z,13.4
2022-10-02T10:58:46.260Z,13.5
2022-10-02T11:10:46.290Z,13.4
2022-10-02T11:22:46.603Z,13.4
2022-10-02T11:34:46.176Z,13.5
2022-10-02T11:46:46.179Z,13.6
2022-10-02T11:58:46.293Z,13.6
2022-10-02T12:10:46.208Z,13.6
2022-10-02T12:22:46.172Z,13.5
2022-10-02T12:34:46.178Z,13.4
2022-10-02T12:46:46.292Z,13.4
2022-10-02T12:58:46.242Z,13.7
2022-10-02T13:10:46.294Z,13.9
2022-10-02T13:22:46.172Z,14.1
2022-10-02T13:34:46.179Z,13.7
2022-10-02T13:46:46.256Z,13.8
2022-10-02T13:58:46.250Z,13.9
2022-10-02T14:10:46.219Z,13.9
2022-10-02T14:22:46.221Z,13.7
2022-10-02T14:34:46.224Z,13.8
2022-10-02T14:46:46.288Z,13.7
2022-10-02T14:58:46.307Z,13.6
2022-10-02T15:10:46.258Z,13.6
2022-10-02T15:22:46.267Z,13.6
2022-10-02T15:34:46.245Z,13.5
2022-10-02T15:46:46.264Z,13.4
2022-10-02T15:58:46.239Z,13.3
2022-10-02T16:10:46.268Z,13.1
2022-10-02T16:22:46.294Z,13.0
2022-10-02T16:34:46.170Z,12.9
2022-10-02T16:46:46.336Z,12.8
2022-10-02T16:58:46.271Z,12.5
2022-10-02T17:10:46.178Z,12.2
2022-10-02T17:22:46.166Z,11.9
2022-10-02T17:34:46.173Z,11.7
2022-10-02T17:46:46.274Z,11.5
2022-10-02T17:58:46.169Z,11.2
2022-10-02T18:10:46.167Z,11.2
2022-10-02T18:22:46.170Z,11.4
2022-10-02T18:34:46.865Z,11.5
2022-10-02T18:46:46.258Z,11.4
2022-10-02T18:58:46.221Z,11.5
2022-10-02T19:10:46.164Z,11.6
2022-10-02T19:22:46.168Z,11.8
2022-10-02T19:34:46.171Z,11.7
2022-10-02T19:46:46.166Z,11.8
2022-10-02T19:58:46.169Z,11.7
2022-10-02T20:10:46.169Z,11.6
2022-10-02T20:22:46.165Z,11.3
2022-10-02T20:34:46.171Z,11.1
2022-10-02T20:46:46.168Z,11.0
2022-10-02T20:58:46.165Z,10.7
2022-10-02T21:10:46.172Z,10.6
2022-10-02T21:22:46.171Z,10.4
2022-10-02T21:34:46.178Z,10.1
2022-10-02T21:46:46.778Z,10.0
2022-10-02T21:58:46.171Z,10.0
2022-10-02T22:10:46.169Z,10.1
2022-10-02T22:22:46.185Z,10.2
2022-10-02T22:34:46.174Z,10.3
2022-10-02T22:46:46.324Z,10.3
2022-10-02T22:58:46.164Z,10.0
2022-10-02T23:10:46.237Z,9.8
2022-10-02T23:22:46.172Z,9.5
2022-10-02T23:34:46.171Z,9.3
2022-10-02T23:46:46.291Z,9.3
2022-10-02T23:58:46.171Z,9.0
